Main page
METAR-TAF:

METAR-TAF

Airports :

George Best Belfast City Airport

Belfast City, Northern Ireland

latitude: 54-36N, longitude: 005-53W, elevation: 5 m

Current weather observation

The report was made 28 minutes ago, at 18:20 UTC
Wind 8 kt from the South
Temperature 17°C
Humidity 88%
Pressure 1012 hPa
Visibility 10 km or more

METAR: EGAC 161820Z AUTO 18008KT 9999 OVC034/// 17/15 Q1012

Time: 19:48 (18:48 UTC)

Forecast

The report was made 1 hour and 51 minutes ago, at 16:57 UTC
Forecast valid from 16 at 18 UTC to 16 at 21 UTC
Wind 9 kt from the South
Visibility 10 km or more
Few clouds at a height of 1200 ft
Scattered clouds at a height of 2000 ft
Temporary
from 16 at 18 UTC to 16 at 21 UTC
Visibility: 7000 m
rain, light rain, drizzle
Probability 40% :
Temporary
from 16 at 18 UTC to 16 at 21 UTC
Visibility: 4000 m

TAF: EGAC 161657Z 1618/1621 17009KT 9999 FEW012 SCT020 TEMPO 1618/1621 7000 RA -RADZ PROB40 TEMPO 1618/1621 4000

Weather observations and forecasts of more than 4000 airports (METAR and TAF reports).

The available stations are represented by yellow and red dots on the map.

Hover mouse over dot to see the name of the station.

Then click to see weather observations and forecasts.

To change the map : click on the green buttons with a black cross to zoom in, on the green button with a dash to zoom out, or on the green arrows for adjacent maps.


METAR-TAF: